createdAt,value
2018-02-22T00:01:15.483Z,97979.81
2018-02-22T00:03:43.799Z,97989.61
2018-02-22T00:06:12.068Z,97980.96
2018-02-22T00:08:40.361Z,97984.05
2018-02-22T00:11:09.257Z,97987.73
2018-02-22T00:13:37.524Z,97978.50
2018-02-22T00:16:06.575Z,97976.37
2018-02-22T00:18:34.864Z,97969.85
2018-02-22T00:21:03.155Z,97976.77
2018-02-22T00:23:31.424Z,97972.70
2018-02-22T00:25:59.707Z,97973.13
2018-02-22T00:28:28.042Z,97969.52
2018-02-22T00:30:56.332Z,97968.95
2018-02-22T00:33:24.675Z,97967.22
2018-02-22T00:35:53.119Z,97958.69
2018-02-22T00:38:21.421Z,97955.75
2018-02-22T00:40:49.733Z,97957.31
2018-02-22T00:43:18.803Z,97952.14
2018-02-22T00:45:47.084Z,97953.50
2018-02-22T00:48:15.343Z,97978.89
2018-02-22T00:50:43.828Z,97954.81
2018-02-22T00:53:12.104Z,97955.05
2018-02-22T00:55:41.148Z,97946.52
2018-02-22T00:58:09.396Z,97951.80
2018-02-22T01:00:38.431Z,97948.36
2018-02-22T01:03:06.705Z,97950.54
2018-02-22T01:05:35.010Z,97943.70
2018-02-22T01:08:03.271Z,97946.50
2018-02-22T01:10:32.312Z,97950.06
2018-02-22T01:13:00.570Z,97946.48
2018-02-22T01:15:29.615Z,97951.48
2018-02-22T01:17:57.919Z,97948.17
2018-02-22T01:20:26.264Z,97942.34
2018-02-22T01:22:54.662Z,97937.15
2018-02-22T01:25:23.017Z,97945.28
2018-02-22T01:27:51.293Z,97946.50
2018-02-22T01:30:19.623Z,97941.36
2018-02-22T01:32:49.020Z,97937.86
2018-02-22T01:35:17.293Z,97941.77
2018-02-22T01:37:45.557Z,97937.76
2018-02-22T01:40:13.837Z,97936.97
2018-02-22T01:42:42.119Z,97938.58
2018-02-22T01:45:10.401Z,97937.30
2018-02-22T01:47:38.654Z,97933.66
2018-02-22T01:50:07.713Z,97930.82
2018-02-22T01:52:35.966Z,97929.07
2018-02-22T01:55:05.011Z,97929.75
2018-02-22T01:57:33.273Z,97921.39
2018-02-22T02:00:01.580Z,97924.95
2018-02-22T02:02:29.861Z,97918.52
2018-02-22T02:04:58.170Z,97926.65
2018-02-22T02:07:26.506Z,97922.72
2018-02-22T02:09:54.884Z,97912.11
2018-02-22T02:12:24.025Z,97917.81
2018-02-22T02:14:52.300Z,97922.11
2018-02-22T02:17:20.570Z,97911.94
2018-02-22T02:19:48.856Z,97915.23
2018-02-22T02:22:17.129Z,97912.04
2018-02-22T02:24:46.428Z,97908.03
2018-02-22T02:27:14.723Z,97913.43
2018-02-22T02:29:43.018Z,97914.75
2018-02-22T02:32:11.300Z,97903.91
2018-02-22T02:34:39.573Z,97904.08
2018-02-22T02:37:07.870Z,97906.23
2018-02-22T02:39:36.145Z,97902.69
2018-02-22T02:42:04.420Z,97904.45
2018-02-22T02:44:32.690Z,97901.75
2018-02-22T02:47:00.986Z,97901.89
2018-02-22T02:49:30.020Z,97894.87
2018-02-22T02:51:58.296Z,97887.08
2018-02-22T02:54:26.569Z,97890.44
2018-02-22T02:56:55.608Z,97886.31
2018-02-22T02:59:23.876Z,97885.16
2018-02-22T03:01:52.909Z,97882.49
2018-02-22T03:04:21.182Z,97889.12
2018-02-22T03:06:49.456Z,97883.84
2018-02-22T03:09:18.481Z,97880.06
2018-02-22T03:11:46.756Z,97882.54
2018-02-22T03:14:15.788Z,97885.05
2018-02-22T03:16:44.071Z,97876.20
2018-02-22T03:19:12.353Z,97878.88
2018-02-22T03:21:40.638Z,97886.03
2018-02-22T03:24:08.911Z,97879.28
2018-02-22T03:26:37.964Z,97876.81
2018-02-22T03:29:06.228Z,97871.77
2018-02-22T03:31:34.512Z,97882.61
2018-02-22T03:34:03.544Z,97880.61
2018-02-22T03:36:31.838Z,97873.48
2018-02-22T03:39:00.125Z,97873.55
2018-02-22T03:41:28.401Z,97872.69
2018-02-22T03:43:56.656Z,97868.78
2018-02-22T03:46:25.708Z,97869.83
2018-02-22T03:48:53.966Z,97875.67
2018-02-22T03:51:23.020Z,97870.55
2018-02-22T03:53:51.277Z,97875.31
2018-02-22T03:56:19.592Z,97874.28
2018-02-22T03:58:48.063Z,97869.61
2018-02-22T04:01:16.355Z,97872.44
2018-02-22T04:03:44.661Z,97876.09
2018-02-22T04:06:13.047Z,97878.81
2018-02-22T04:08:41.340Z,97880.72
2018-02-22T04:11:09.632Z,97879.89
2018-02-22T04:13:37.894Z,97875.80
2018-02-22T04:16:07.111Z,97881.08
2018-02-22T04:18:35.381Z,97877.56
2018-02-22T04:21:04.401Z,97886.69
2018-02-22T04:23:32.681Z,97881.91
2018-02-22T04:26:01.712Z,97885.59
2018-02-22T04:28:29.996Z,97889.50
2018-02-22T04:30:58.281Z,97885.67
2018-02-22T04:33:26.566Z,97884.09
2018-02-22T04:35:55.612Z,97880.47
2018-02-22T04:38:23.905Z,97887.25
2018-02-22T04:40:52.167Z,97883.55
2018-02-22T04:43:20.451Z,97888.59
2018-02-22T04:45:48.704Z,97891.58
2018-02-22T04:48:16.991Z,97886.65
2018-02-22T04:50:46.064Z,97884.50
2018-02-22T04:53:14.364Z,97885.45
2018-02-22T04:55:42.707Z,97886.20
2018-02-22T04:58:11.794Z,97888.12
2018-02-22T05:00:40.820Z,97883.10
2018-02-22T05:03:09.093Z,97890.53
2018-02-22T05:05:38.118Z,97890.42
2018-02-22T05:08:06.395Z,97887.03
2018-02-22T05:10:35.420Z,97888.95
2018-02-22T05:13:03.699Z,97883.17
2018-02-22T05:15:32.787Z,97880.14
2018-02-22T05:18:01.072Z,97880.36
2018-02-22T05:20:29.340Z,97880.05
2018-02-22T05:22:57.608Z,97882.09
2018-02-22T05:25:25.872Z,97876.01
2018-02-22T05:27:54.161Z,97869.08
2018-02-22T05:30:22.412Z,97865.81
2018-02-22T05:32:50.696Z,97862.91
2018-02-22T05:35:18.954Z,97868.86
2018-02-22T05:37:47.236Z,97868.49
2018-02-22T05:40:15.515Z,97870.38
2018-02-22T05:42:43.839Z,97874.27
2018-02-22T05:45:12.899Z,97874.31
2018-02-22T05:47:41.199Z,97866.52
2018-02-22T05:50:09.478Z,97875.70
2018-02-22T05:52:37.951Z,97874.69
2018-02-22T05:55:07.018Z,97869.30
2018-02-22T05:57:35.460Z,97870.58
2018-02-22T06:00:04.507Z,97872.27
2018-02-22T06:02:32.966Z,97873.23
2018-02-22T06:05:01.299Z,97888.13
2018-02-22T06:07:29.676Z,97881.38
2018-02-22T06:09:58.130Z,97876.11
2018-02-22T06:12:27.182Z,97877.48
2018-02-22T06:14:56.648Z,97878.64
2018-02-22T06:17:24.992Z,97872.08
2018-02-22T06:19:53.441Z,97868.80
2018-02-22T06:22:22.539Z,97881.65
2018-02-22T06:24:50.937Z,97874.42
2018-02-22T06:27:19.240Z,97872.62
2018-02-22T06:29:48.367Z,97876.66
2018-02-22T06:32:16.912Z,97884.84
2018-02-22T06:34:45.208Z,97883.44
2018-02-22T06:37:13.871Z,97887.72
2018-02-22T06:39:42.222Z,97892.30
2018-02-22T06:42:11.363Z,97889.40
2018-02-22T06:44:39.754Z,97890.22
2018-02-22T06:47:08.133Z,97889.97
2018-02-22T06:49:36.420Z,97888.36
2018-02-22T06:52:06.313Z,97889.22
2018-02-22T06:54:35.579Z,97888.06
2018-02-22T06:57:03.934Z,97891.36
2018-02-22T06:59:33.011Z,97888.92
2018-02-22T07:02:01.282Z,97893.69
2018-02-22T07:04:29.639Z,97893.28
2018-02-22T07:06:57.904Z,97892.39
2018-02-22T07:09:27.562Z,97884.91
2018-02-22T07:11:55.854Z,97883.78
2018-02-22T07:14:24.191Z,97886.73
2018-02-22T07:16:52.491Z,97882.70
2018-02-22T07:19:21.734Z,97895.67
2018-02-22T07:21:50.057Z,97896.66
2018-02-22T07:24:18.414Z,97899.33
2018-02-22T07:26:46.711Z,97905.11
2018-02-22T07:29:15.010Z,97893.12
2018-02-22T07:31:43.368Z,97892.36
2018-02-22T07:34:11.673Z,97891.76
2018-02-22T07:36:39.940Z,97893.49
2018-02-22T07:39:09.384Z,97893.91
2018-02-22T07:41:37.768Z,97894.64
2018-02-22T07:44:06.078Z,97894.23
2018-02-22T07:46:34.493Z,97896.42
2018-02-22T07:49:02.768Z,97896.84
2018-02-22T07:51:31.172Z,97890.91
2018-02-22T07:53:59.601Z,97892.55
2018-02-22T07:56:28.755Z,97880.62
2018-02-22T07:58:57.032Z,97887.71
2018-02-22T08:01:25.367Z,97885.52
2018-02-22T08:03:54.442Z,97887.89
2018-02-22T08:06:23.209Z,97892.69
2018-02-22T08:08:52.313Z,97897.27
2018-02-22T08:11:21.403Z,97895.31
2018-02-22T08:13:50.553Z,97884.31
2018-02-22T08:16:18.836Z,97898.89
2018-02-22T08:18:47.222Z,97890.80
2018-02-22T08:21:15.619Z,97886.09
2018-02-22T08:23:43.922Z,97887.36
2018-02-22T08:26:12.218Z,97900.61
2018-02-22T08:28:40.563Z,97891.00
2018-02-22T08:31:09.722Z,97893.90
2018-02-22T08:33:38.139Z,97890.20
2018-02-22T08:36:06.385Z,97887.28
2018-02-22T08:38:34.719Z,97878.05
2018-02-22T08:41:04.057Z,97884.45
2018-02-22T08:43:33.266Z,97886.01
2018-02-22T08:46:02.735Z,97882.08
2018-02-22T08:48:31.023Z,97876.80
2018-02-22T08:50:59.743Z,97880.51
2018-02-22T08:53:28.024Z,97875.90
2018-02-22T08:55:56.367Z,97871.09
2018-02-22T08:58:25.422Z,97878.17
2018-02-22T09:00:54.562Z,97868.95
2018-02-22T09:03:22.895Z,97865.35
2018-02-22T09:05:51.415Z,97875.37
2018-02-22T09:08:19.748Z,97870.78
2018-02-22T09:10:48.823Z,97873.39
2018-02-22T09:13:17.123Z,97879.89
2018-02-22T09:15:45.589Z,97879.22
2018-02-22T09:18:14.006Z,97868.73
2018-02-22T09:20:43.095Z,97866.53
2018-02-22T09:23:11.850Z,97879.06
2018-02-22T09:25:40.191Z,97864.00
2018-02-22T09:28:08.730Z,97874.80
2018-02-22T09:30:38.335Z,97872.66
2018-02-22T09:33:07.650Z,97876.68
2018-02-22T09:35:36.866Z,97868.04
2018-02-22T09:38:06.333Z,97861.23
2018-02-22T09:40:34.699Z,97865.64
2018-02-22T09:43:04.038Z,97867.42
2018-02-22T09:45:32.622Z,97865.66
2018-02-22T09:48:01.459Z,97860.28
2018-02-22T09:50:30.062Z,97864.18
2018-02-22T09:52:58.618Z,97864.48
2018-02-22T09:55:27.213Z,97859.33
2018-02-22T09:57:55.743Z,97861.25
2018-02-22T10:00:24.519Z,97871.79
2018-02-22T10:02:52.884Z,97867.09
2018-02-22T10:05:21.390Z,97865.06
2018-02-22T10:07:49.713Z,97870.91
2018-02-22T10:10:18.135Z,97872.74
2018-02-22T10:12:46.919Z,97857.32
2018-02-22T10:15:15.172Z,97864.73
2018-02-22T10:17:43.915Z,97855.61
2018-02-22T10:20:12.233Z,97855.55
2018-02-22T10:22:41.286Z,97851.27
2018-02-22T10:25:09.957Z,97840.94
2018-02-22T10:27:38.681Z,97842.08
2018-02-22T10:30:06.971Z,97851.77
2018-02-22T10:32:36.561Z,97842.27
2018-02-22T10:35:05.093Z,97845.07
2018-02-22T10:37:33.695Z,97839.84
2018-02-22T10:40:02.247Z,97842.03
2018-02-22T10:42:30.694Z,97846.20
2018-02-22T10:44:59.006Z,97839.09
2018-02-22T10:47:28.316Z,97851.13
2018-02-22T10:49:57.753Z,97852.89
2018-02-22T10:52:26.069Z,97843.86
2018-02-22T10:54:54.447Z,97846.89
2018-02-22T10:57:22.838Z,97842.38
2018-02-22T10:59:51.225Z,97837.57
2018-02-22T11:02:25.288Z,97844.10
2018-02-22T11:04:53.562Z,97832.58
2018-02-22T11:07:21.836Z,97831.11
2018-02-22T11:09:50.096Z,97827.56
2018-02-22T11:12:19.204Z,97839.41
2018-02-22T11:14:48.988Z,97823.53
2018-02-22T11:17:17.270Z,97820.34
2018-02-22T11:19:45.603Z,97818.59
2018-02-22T11:22:13.871Z,97820.69
2018-02-22T11:24:42.200Z,97815.20
2018-02-22T11:27:10.485Z,97813.08
2018-02-22T11:29:38.984Z,97811.33
2018-02-22T11:32:07.305Z,97815.57
2018-02-22T11:34:36.468Z,97807.69
2018-02-22T11:37:05.505Z,97810.12
2018-02-22T11:39:33.770Z,97831.25
2018-02-22T11:42:03.473Z,97803.28
2018-02-22T11:44:31.741Z,97806.27
2018-02-22T11:47:00.308Z,97800.27
2018-02-22T11:49:28.656Z,97803.36
2018-02-22T11:51:56.929Z,97795.75
2018-02-22T11:54:25.191Z,97794.02
2018-02-22T11:56:55.117Z,97791.30
2018-02-22T11:59:24.154Z,97784.84
2018-02-22T12:01:52.497Z,97784.45
2018-02-22T12:04:20.919Z,97792.75
2018-02-22T12:06:49.274Z,97796.41
2018-02-22T12:09:17.581Z,97794.47
2018-02-22T12:11:45.898Z,97782.44
2018-02-22T12:14:14.180Z,97768.70
2018-02-22T12:16:42.506Z,97775.09
2018-02-22T12:19:10.775Z,97780.82
2018-02-22T12:21:39.055Z,97778.70
2018-02-22T12:24:07.491Z,97785.70
2018-02-22T12:26:36.822Z,97781.92
2018-02-22T12:29:05.170Z,97778.98
2018-02-22T12:31:33.580Z,97777.48
2018-02-22T12:34:02.644Z,97775.66
2018-02-22T12:36:30.917Z,97780.16
2018-02-22T12:38:59.405Z,97790.45
2018-02-22T12:41:27.748Z,97768.98
2018-02-22T12:43:56.829Z,97765.84
2018-02-22T12:46:25.506Z,97765.61
2018-02-22T12:48:53.788Z,97765.67
2018-02-22T12:51:22.066Z,97767.39
2018-02-22T12:53:50.332Z,97756.70
2018-02-22T12:56:19.465Z,97776.06
2018-02-22T12:58:47.790Z,97757.92
2018-02-22T13:01:16.091Z,97776.29
2018-02-22T13:03:44.425Z,97769.20
2018-02-22T13:06:12.786Z,97757.84
2018-02-22T13:08:41.158Z,97764.88
2018-02-22T13:11:10.234Z,97764.47
2018-02-22T13:13:38.580Z,97759.59
2018-02-22T13:16:08.620Z,97752.19
2018-02-22T13:18:37.730Z,97756.09
2018-02-22T13:21:06.880Z,97757.80
2018-02-22T13:23:35.212Z,97748.45
2018-02-22T13:26:04.462Z,97760.80
2018-02-22T13:28:32.773Z,97749.10
2018-02-22T13:31:01.078Z,97754.04
2018-02-22T13:33:47.013Z,97745.26
2018-02-22T13:36:15.310Z,97746.86
2018-02-22T13:39:02.221Z,97749.23
2018-02-22T13:41:30.515Z,97739.55
2018-02-22T13:44:16.394Z,97743.56
2018-02-22T13:46:44.679Z,97736.87
2018-02-22T13:49:30.684Z,97739.88
2018-02-22T13:51:59.814Z,97737.90
2018-02-22T13:54:28.100Z,97739.26
2018-02-22T13:57:14.185Z,97731.13
2018-02-22T13:59:42.563Z,97743.83
2018-02-22T14:02:25.191Z,97732.45
2018-02-22T14:04:53.522Z,97725.58
2018-02-22T14:07:21.898Z,97730.98
2018-02-22T14:09:50.176Z,97740.96
2018-02-22T14:12:18.478Z,97728.39
2018-02-22T14:14:46.782Z,97723.84
2018-02-22T14:17:15.123Z,97744.48
2018-02-22T14:19:43.369Z,97737.81
2018-02-22T14:22:12.520Z,97732.48
2018-02-22T14:24:40.796Z,97742.86
2018-02-22T14:27:09.123Z,97721.44
2018-02-22T14:29:37.493Z,97736.26
2018-02-22T14:32:05.901Z,97737.20
2018-02-22T14:34:34.139Z,97725.66
2018-02-22T14:37:03.273Z,97747.65
2018-02-22T14:39:31.590Z,97736.84
2018-02-22T14:42:00.012Z,97738.19
2018-02-22T14:44:29.189Z,97736.98
2018-02-22T14:46:57.523Z,97721.66
2018-02-22T14:49:25.838Z,97739.41
2018-02-22T14:51:54.087Z,97720.03
2018-02-22T14:54:22.405Z,97730.39
2018-02-22T14:56:51.565Z,97724.09
2018-02-22T14:59:19.998Z,97729.06
2018-02-22T15:01:49.097Z,97729.48
2018-02-22T15:04:17.501Z,97723.40
2018-02-22T15:06:45.772Z,97730.78
2018-02-22T15:09:14.113Z,97726.77
2018-02-22T15:11:42.374Z,97733.27
2018-02-22T15:14:11.984Z,97724.67
2018-02-22T15:16:40.249Z,97732.70
2018-02-22T15:19:08.567Z,97737.72
2018-02-22T15:21:37.611Z,97740.66
2018-02-22T15:24:05.895Z,97737.84
2018-02-22T15:26:34.206Z,97729.16
2018-02-22T15:29:02.835Z,97728.61
2018-02-22T15:31:32.389Z,97727.61
2018-02-22T15:34:01.425Z,97731.84
2018-02-22T15:36:29.801Z,97732.23
2018-02-22T15:38:58.078Z,97730.09
2018-02-22T15:41:26.477Z,97731.44
2018-02-22T15:43:54.871Z,97719.36
2018-02-22T15:46:23.163Z,97737.13
2018-02-22T15:48:51.454Z,97727.02
2018-02-22T15:51:19.722Z,97735.33
2018-02-22T15:53:48.943Z,97741.33
2018-02-22T15:56:17.256Z,97741.59
2018-02-22T15:58:45.919Z,97738.42
2018-02-22T16:01:14.984Z,97743.84
2018-02-22T16:03:43.303Z,97746.28
2018-02-22T16:06:12.368Z,97742.17
2018-02-22T16:08:40.720Z,97731.75
2018-02-22T16:11:08.982Z,97738.22
2018-02-22T16:13:37.395Z,97735.30
2018-02-22T16:16:05.780Z,97735.39
2018-02-22T16:18:34.868Z,97732.66
2018-02-22T16:21:04.325Z,97725.38
2018-02-22T16:23:32.783Z,97744.27
2018-02-22T16:26:01.301Z,97739.32
2018-02-22T16:28:30.366Z,97735.97
2018-02-22T16:30:58.779Z,97736.35
2018-02-22T16:33:28.067Z,97737.98
2018-02-22T16:35:56.362Z,97748.38
2018-02-22T16:38:24.819Z,97742.12
2018-02-22T16:40:53.109Z,97745.84
2018-02-22T16:43:21.480Z,97747.65
2018-02-22T16:45:51.125Z,97747.42
2018-02-22T16:48:19.471Z,97745.09
2018-02-22T16:50:47.909Z,97747.59
2018-02-22T16:53:16.940Z,97746.56
2018-02-22T16:55:45.328Z,97743.55
2018-02-22T16:58:14.297Z,97748.69
2018-02-22T17:00:43.614Z,97751.95
2018-02-22T17:03:12.790Z,97755.45
2018-02-22T17:05:41.941Z,97755.89
2018-02-22T17:08:11.428Z,97763.71
2018-02-22T17:10:41.282Z,97763.39
2018-02-22T17:13:09.553Z,97764.17
2018-02-22T17:15:39.315Z,97753.31
2018-02-22T17:18:07.621Z,97767.03
2018-02-22T17:20:35.882Z,97761.28
2018-02-22T17:23:04.275Z,97765.00
2018-02-22T17:25:32.091Z,97763.49
2018-02-22T17:28:05.823Z,97773.08
2018-02-22T17:30:39.689Z,97770.01
2018-02-22T17:33:08.797Z,97778.28
2018-02-22T17:35:39.066Z,97775.61
2018-02-22T17:38:09.583Z,97770.84
2018-02-22T17:43:37.659Z,97783.78
2018-02-22T17:46:07.461Z,97777.61
2018-02-22T17:48:35.870Z,97778.52
2018-02-22T17:51:04.445Z,97779.98
2018-02-22T17:53:32.997Z,97774.50
2018-02-22T17:56:01.412Z,97781.54
2018-02-22T17:58:30.718Z,97786.17
2018-02-22T18:00:59.180Z,97788.14
2018-02-22T18:03:28.935Z,97782.13
2018-02-22T18:05:57.223Z,97781.83
2018-02-22T18:08:25.549Z,97783.89
2018-02-22T18:10:54.032Z,97783.72
2018-02-22T18:13:22.293Z,97784.43
2018-02-22T18:15:50.596Z,97786.68
2018-02-22T18:18:18.887Z,97787.29
2018-02-22T18:20:47.999Z,97784.33
2018-02-22T18:23:16.524Z,97789.94
2018-02-22T18:25:45.042Z,97780.67
2018-02-22T18:28:13.981Z,97796.30
2018-02-22T18:30:42.518Z,97793.52
2018-02-22T18:33:10.918Z,97792.22
2018-02-22T18:35:39.503Z,97793.63
2018-02-22T18:38:08.003Z,97799.69
2018-02-22T18:40:41.955Z,97798.43
2018-02-22T18:43:16.626Z,97801.32
2018-02-22T18:45:44.980Z,97800.59
2018-02-22T18:48:14.099Z,97796.39
2018-02-22T18:50:42.585Z,97802.85
2018-02-22T18:53:10.935Z,97795.98
2018-02-22T18:55:39.243Z,97790.50
2018-02-22T18:58:07.515Z,97798.25
2018-02-22T19:00:35.800Z,97794.42
2018-02-22T19:03:04.096Z,97796.31
2018-02-22T19:05:32.571Z,97787.23
2018-02-22T19:08:00.899Z,97789.85
2018-02-22T19:10:29.285Z,97800.02
2018-02-22T19:12:57.625Z,97793.30
2018-02-22T19:15:26.146Z,97786.92
2018-02-22T19:17:54.437Z,97785.08
2018-02-22T19:20:22.760Z,97789.50
2018-02-22T19:22:51.049Z,97786.25
2018-02-22T19:25:19.412Z,97785.07
2018-02-22T19:27:47.834Z,97786.88
2018-02-22T19:30:16.244Z,97787.23
2018-02-22T19:32:45.302Z,97779.84
2018-02-22T19:35:13.896Z,97784.13
2018-02-22T19:37:42.211Z,97785.98
2018-02-22T19:40:10.556Z,97783.80
2018-02-22T19:42:38.824Z,97786.42
2018-02-22T19:45:07.887Z,97790.67
2018-02-22T19:47:36.348Z,97790.31
2018-02-22T19:50:04.683Z,97789.36
2018-02-22T19:52:33.058Z,97792.64
2018-02-22T19:55:02.129Z,97788.52
2018-02-22T19:57:30.440Z,97783.04
2018-02-22T19:59:58.957Z,97782.20
2018-02-22T20:02:27.226Z,97781.31
2018-02-22T20:04:55.524Z,97781.60
2018-02-22T20:07:23.836Z,97778.25
2018-02-22T20:09:52.306Z,97779.72
2018-02-22T20:12:20.651Z,97784.75
2018-02-22T20:14:49.730Z,97780.20
2018-02-22T20:17:18.112Z,97783.90
2018-02-22T20:19:46.528Z,97790.04
2018-02-22T20:22:14.887Z,97788.94
2018-02-22T20:24:43.269Z,97789.18
2018-02-22T20:27:11.571Z,97783.45
2018-02-22T20:29:39.842Z,97798.63
2018-02-22T20:32:08.191Z,97784.06
2018-02-22T20:34:37.194Z,97786.48
2018-02-22T20:37:06.484Z,97794.09
2018-02-22T20:39:34.828Z,97778.09
2018-02-22T20:42:03.161Z,97785.83
2018-02-22T20:44:31.446Z,97788.60
2018-02-22T20:47:00.608Z,97785.80
2018-02-22T20:49:29.004Z,97785.13
2018-02-22T20:51:57.346Z,97787.06
2018-02-22T20:54:25.635Z,97778.43
2018-02-22T20:56:54.099Z,97791.69
2018-02-22T20:59:22.509Z,97781.78
2018-02-22T21:01:50.806Z,97787.38
2018-02-22T21:04:19.878Z,97788.05
2018-02-22T21:06:48.162Z,97786.56
2018-02-22T21:09:16.439Z,97781.38
2018-02-22T21:11:44.708Z,97776.83
2018-02-22T21:14:13.731Z,97775.85
2018-02-22T21:16:42.138Z,97784.84
2018-02-22T21:19:10.424Z,97774.59
2018-02-22T21:21:38.861Z,97779.98
2018-02-22T21:24:07.967Z,97781.25
2018-02-22T21:26:36.401Z,97784.20
2018-02-22T21:29:05.462Z,97786.20
2018-02-22T21:31:34.171Z,97787.10
2018-02-22T21:34:02.474Z,97789.35
2018-02-22T21:36:30.861Z,97788.33
2018-02-22T21:38:59.208Z,97777.09
2018-02-22T21:41:27.525Z,97798.52
2018-02-22T21:43:56.085Z,97790.45
2018-02-22T21:46:25.223Z,97795.08
2018-02-22T21:48:53.512Z,97796.71
2018-02-22T21:51:21.781Z,97794.71
2018-02-22T21:53:50.102Z,97801.25
2018-02-22T21:56:18.455Z,97796.11
2018-02-22T21:58:46.749Z,97805.17
2018-02-22T22:01:15.112Z,97805.17
2018-02-22T22:03:44.226Z,97810.91
2018-02-22T22:06:12.622Z,97810.37
2018-02-22T22:08:41.002Z,97814.17
2018-02-22T22:11:10.199Z,97822.27
2018-02-22T22:13:38.679Z,97813.39
2018-02-22T22:16:07.116Z,97816.59
2018-02-22T22:18:35.531Z,97813.92
2018-02-22T22:21:03.958Z,97804.31
2018-02-22T22:23:32.236Z,97805.05
2018-02-22T22:26:00.830Z,97809.67
2018-02-22T22:28:29.210Z,97803.00
2018-02-22T22:30:57.590Z,97807.91
2018-02-22T22:33:25.985Z,97806.73
2018-02-22T22:35:54.577Z,97794.91
2018-02-22T22:38:23.127Z,97795.77
2018-02-22T22:40:52.167Z,97799.53
2018-02-22T22:43:20.480Z,97798.70
2018-02-22T22:45:48.829Z,97789.42
2018-02-22T22:48:17.952Z,97787.63
2018-02-22T22:50:46.579Z,97784.48
2018-02-22T22:53:15.116Z,97786.81
2018-02-22T22:55:43.590Z,97787.15
2018-02-22T22:58:12.380Z,97785.92
2018-02-22T23:00:40.662Z,97781.54
2018-02-22T23:03:08.976Z,97776.19
2018-02-22T23:05:37.296Z,97781.95
2018-02-22T23:08:06.394Z,97787.34
2018-02-22T23:10:34.755Z,97782.52
2018-02-22T23:13:03.171Z,97784.19
2018-02-22T23:15:31.429Z,97785.46
2018-02-22T23:17:59.704Z,97785.55
2018-02-22T23:20:27.962Z,97781.00
2018-02-22T23:22:56.227Z,97782.77
2018-02-22T23:25:24.492Z,97784.19
2018-02-22T23:27:52.887Z,97781.73
2018-02-22T23:30:21.147Z,97783.97
2018-02-22T23:32:49.432Z,97780.02
2018-02-22T23:35:17.677Z,97782.77
2018-02-22T23:37:45.952Z,97791.34
2018-02-22T23:40:14.560Z,97793.84
2018-02-22T23:42:42.847Z,97783.63
2018-02-22T23:45:11.099Z,97780.98
2018-02-22T23:47:39.374Z,97792.26
2018-02-22T23:50:07.651Z,97783.63
2018-02-22T23:52:35.932Z,97786.19
2018-02-22T23:55:04.189Z,97783.97
2018-02-22T23:57:32.436Z,97778.11
